Orbital elements of COSMOS 1275 DEB
| Launched | 3 June 1981 |
| Flight ended | – |
| Launch site | Plesetsk Missile and Space Complex, Russia |
| Owner | Commonwealth of Independent States (former USSR) |
| NORAD ID | 42209 |
| Date fetched |
Epoch osculation |
Inc. [°] |
Ecc. | RA asc node [hr] |
Arg Peri. [°] |
Mean anom [°] |
Mean motion [rev/day] |
Abs. mag |
| Date fetched |
Epoch osculation |
Inc. [°] |
Ecc. | RA asc node [hr] |
Arg Peri. [°] |
Mean anom [°] |
Mean motion [rev/day] |
Abs. mag |
| 2026 May 01 17:56 | 2026 Apr 30 14:13:55 | 82.8748 | 0.00558 | 4.6542 | 15.2739 | 345.0093 | 13.88819 | – |
| 2026 Apr 30 17:56 | 2026 Apr 30 14:13:55 | 82.8748 | 0.00558 | 4.6542 | 15.2739 | 345.0093 | 13.88819 | – |
| 2026 Apr 29 17:57 | 2026 Apr 24 04:20:41 | 82.8745 | 0.00562 | 4.9815 | 32.8423 | 345.0093 | 13.88819 | – |
| 2026 Apr 28 17:56 | 2026 Apr 24 04:20:41 | 82.8745 | 0.00562 | 4.9815 | 32.8423 | 345.0093 | 13.88819 | – |
| 2026 Apr 27 17:58 | 2026 Apr 24 04:20:41 | 82.8745 | 0.00562 | 4.9815 | 32.8423 | 345.0093 | 13.88819 | – |
| 2026 Apr 26 17:58 | 2026 Apr 24 04:20:41 | 82.8745 | 0.00562 | 4.9815 | 32.8423 | 345.0093 | 13.88819 | – |
| 2026 Apr 25 17:58 | 2026 Apr 24 04:20:41 | 82.8745 | 0.00562 | 4.9815 | 32.8423 | 345.0093 | 13.88819 | – |
| 2026 Apr 24 17:59 | 2026 Apr 24 04:20:41 | 82.8745 | 0.00562 | 4.9815 | 32.8423 | 345.0093 | 13.88819 | – |
| 2026 Apr 23 17:57 | 2026 Apr 18 15:12:18 | 82.8740 | 0.00561 | 5.2647 | 48.0665 | 345.0093 | 13.88819 | – |
| 2026 Apr 22 17:57 | 2026 Apr 18 15:12:18 | 82.8740 | 0.00561 | 5.2647 | 48.0665 | 345.0093 | 13.88819 | – |
| 2026 Apr 21 17:57 | 2026 Apr 18 15:12:18 | 82.8740 | 0.00561 | 5.2647 | 48.0665 | 345.0093 | 13.88819 | – |
| 2026 Apr 20 17:57 | 2026 Apr 18 15:12:18 | 82.8740 | 0.00561 | 5.2647 | 48.0665 | 345.0093 | 13.88819 | – |
| 2026 Apr 19 17:58 | 2026 Apr 18 15:12:18 | 82.8740 | 0.00561 | 5.2647 | 48.0665 | 345.0093 | 13.88819 | – |
| 2026 Apr 18 17:56 | 2026 Apr 08 16:35:20 | 82.8728 | 0.00565 | 5.7721 | 75.7476 | 345.0093 | 13.88819 | – |
| 2026 Apr 16 17:57 | 2026 Apr 08 16:35:20 | 82.8728 | 0.00565 | 5.7721 | 75.7476 | 345.0093 | 13.88819 | – |
| 2026 Apr 14 17:57 | 2026 Apr 08 16:35:20 | 82.8728 | 0.00565 | 5.7721 | 75.7476 | 345.0093 | 13.88819 | – |
| 2026 Apr 13 17:57 | 2026 Apr 08 16:35:20 | 82.8728 | 0.00565 | 5.7721 | 75.7476 | 345.0093 | 13.88819 | – |
| 2026 Apr 12 17:57 | 2026 Apr 06 16:10:25 | 82.8727 | 0.00564 | 5.8751 | 81.3190 | 345.0093 | 13.88819 | – |
| 2026 Apr 11 17:57 | 2026 Apr 06 16:10:25 | 82.8727 | 0.00564 | 5.8751 | 81.3190 | 345.0093 | 13.88819 | – |
| 2026 Apr 10 17:58 | 2026 Apr 06 16:10:25 | 82.8727 | 0.00564 | 5.8751 | 81.3190 | 345.0093 | 13.88819 | – |
| 2026 Apr 09 18:01 | 2026 Apr 06 16:10:25 | 82.8727 | 0.00564 | 5.8751 | 81.3190 | 345.0093 | 13.88819 | – |
| 2026 Apr 08 17:57 | 2026 Apr 06 16:10:25 | 82.8727 | 0.00564 | 5.8751 | 81.3190 | 345.0093 | 13.88819 | – |
| 2026 Apr 07 17:57 | 2026 Mar 28 17:45:40 | 82.8714 | 0.00563 | 6.3311 | 106.1663 | 345.0093 | 13.88819 | – |
| 2026 Apr 06 17:57 | 2026 Mar 28 17:45:40 | 82.8714 | 0.00563 | 6.3311 | 106.1663 | 345.0093 | 13.88819 | – |
| 2026 Apr 05 17:56 | 2026 Mar 28 17:45:40 | 82.8714 | 0.00563 | 6.3311 | 106.1663 | 345.0093 | 13.88819 | – |
| 2026 Apr 04 17:57 | 2026 Mar 28 17:45:40 | 82.8714 | 0.00563 | 6.3311 | 106.1663 | 345.0093 | 13.88819 | – |